Tiempo atmosférico en la estación meteorológica de Fuente El Sol, Valladolid (755 m.)



Fecha
DESCASC
Temp. máxima en grados centígrados (hora)
DESCASC
Temp. mínima en grados centígrados (hora)
DESCASC
Temp. media en grados centígrados
DESCASC
Racha de viento máxima en m/sg (hora)
DESCASC
Velocidad máxima media en intervalos de 10 minutos(hora)
DESCASC
Precipitaciones diarias en mm
DESCASC
Precipitaciones de 00:00 a 06:00 en mm
DESCASC
Precipitaciones de 06:00 a 12:00 en mm
DESCASC
Precipitaciones de 12:00 a 18:00 en mm
DESCASC
Precipitaciones de 18:00 a 24:00 en mm
DESCASC
13-02-2020 13.8 (17:50) 5.3 (22:00) 9.6 9.17 (15:00) 6.94 (13:00) 0 0 0 0 0
12-02-2020 15.6 (12:50) 4.9 (06:20) 10.3 7.5 (03:40) 5 (03:40) 0 0 0 0 0
11-02-2020 13.5 (17:20) 3.1 (08:50) 8.3 5 (01:00) 4.17 (01:00) 0 0 0 0 0
10-02-2020 14.8 (15:50) 7.7 (00:00) 11.3 10.28 (15:00) 7.5 (16:00) 0 0 0 0 0
09-02-2020 13.1 (16:30) 3.3 (00:00) 8.2 8.33 (18:10) 5.83 (14:30) 0 0 0 0 0
08-02-2020 13.9 (16:30) 3.8 (00:00) 8.8 10.28 (16:30) 6.94 (15:10) 0.6 0 0.6 0 0
07-02-2020 16.2 (16:10) 0.3 (00:00) 8.3 6.94 (23:40) 5 (23:40) 0 0 0 0 0
06-02-2020 15.9 (16:40) -2.5 (-00:0) 6.7 4.44 (22:50) 3.61 (22:50) 0 0 0 0 0
05-02-2020 12.5 (17:50) -2.5 (-00:0) 5 4.17 (11:40) 2.78 (11:40) 0 0 0 0 0
04-02-2020 15.2 (14:30) 2 (00:00) 8.6 6.67 (15:40) 5 (15:40) 0 0 0 0 0
03-02-2020 18 (17:00) 2.9 (07:00) 10.5 6.67 (18:10) 4.17 (18:10) 0 0 0 0 0
02-02-2020 20 (16:50) 7.4 (00:00) 13.7 9.72 (03:40) 5.83 (03:40) 0 0 0 0 0
01-02-2020 16.4 (16:30) 10.8 (00:00) 13.6 10.83 (11:20) 8.61 (11:20) 0 0 0 0 0
31-01-2020 15.7 (16:30) 9.3 (00:00) 12.5 9.72 (01:10) 6.94 (01:20) 0.6 0.2 0 0 0.4
30-01-2020 10.4 (15:10) 6.9 (00:00) 8.6 11.94 (15:40) 7.5 (21:50) 0 0 0 0 0
29-01-2020 12.3 (16:20) 8.8 (00:00) 10.6 10.56 (00:10) 7.78 (00:20) 1.6 0 0.4 1.2 0
28-01-2020 12.1 (14:50) 8.7 (00:00) 10.4 14.72 (15:40) 9.17 (15:30) 1 0.4 0.2 0.4 0
27-01-2020 10.7 (14:00) 3.7 (00:00) 7.2 18.89 (15:40) 13.33 (15:00) 0 0 0 0 0
26-01-2020 9.7 (15:10) 0.7 (00:00) 5.2 7.78 (15:30) 6.11 (15:30) 0.2 0 0.2 0 0
25-01-2020 10.1 (16:10) 1.9 (00:00) 6 5.28 (16:10) 3.89 (16:10) 1.6 0.2 1.2 0.2 0
24-01-2020 10.1 (17:00) 2.7 (00:00) 6.4 6.67 (14:20) 5 (14:40) 3.2 0.2 2.4 0 0.6
23-01-2020 11.5 (15:10) -0.7 (-00:0) 5.4 9.17 (16:10) 6.94 (16:00) 0 0 0 0 0
22-01-2020 10.4 (17:00) 1.8 (00:00) 6.1 9.44 (00:30) 6.67 (04:10) 0.2 0.2 0 0 0
21-01-2020 5.4 (15:40) -0.7 (-00:0) 2.4 15 (16:10) 9.72 (16:10) 0.6 0 0.2 0.2 0.2
20-01-2020 3.9 (16:20) -1.5 (-00:0) 1.2 13.89 (05:10) 8.89 (16:00) 0 0 0 0 0
19-01-2020 6.8 (13:50) 1.1 (00:00) 4 20.28 (16:00) 13.89 (13:40) 0 0 0 0 0
18-01-2020 12.7 (14:50) 3.8 (00:00) 8.2 17.22 (16:30) 12.22 (17:30) 2.2 0 0.4 0 1.8

Gráficas

Temp. máximas Temp. mínimas Temp. medias Precipitaciones Rachas de viento máximas Velocidades máximas media en intervalos de 10 minutos

Datos horarios

Fecha y hora oficial Temperatura (ºC) Velocidad del viento (km/h) Dirección del viento Racha (km/h) Dirección de racha Precipitación (mm) Presión (hPa) Tendencia (hPa) Humedad (%)
2020-02-16 23:00:00 9 18 Sudoeste 27 Sudoeste 0 -- -- 89
2020-02-16 22:00:00 9.5 21 Sudoeste 32 Sudoeste 0 -- -- 87
2020-02-16 21:00:00 10.2 20 Sudoeste 26 Sudoeste 0 -- -- 84
2020-02-16 20:00:00 10 15 Sudoeste 30 Sudoeste 0 -- -- 83
2020-02-16 19:00:00 12.1 12 Sur 24 Sudoeste 0 -- -- 75
2020-02-16 18:00:00 15.8 19 Sudoeste 30 Sudoeste 0 -- -- 62
2020-02-16 17:00:00 17.1 23 Sudoeste 32 Sudoeste 0 -- -- 59
2020-02-16 16:00:00 16.7 24 Sudoeste 39 Sur 0 -- -- 59
2020-02-16 15:00:00 16.9 23 Sudoeste 38 Sudoeste 0 -- -- 58
2020-02-16 14:00:00 16.4 24 Sudoeste 36 Sudoeste 0 -- -- 57
2020-02-16 13:00:00 15.7 22 Sudoeste 35 Sudoeste 0 -- -- 63
2020-02-16 12:00:00 13.9 23 Sudoeste 33 Sur 0 -- -- 72
2020-02-16 11:00:00 12.4 18 Sur 26 Sur 0 -- -- 79
2020-02-16 10:00:00 9.6 17 Sur 22 Sudeste 0 -- -- 86
2020-02-16 09:00:00 7 7 Sudeste 12 Sudeste 0 -- -- 93
2020-02-16 08:00:00 4.1 4 Sur 12 Sur 0 -- -- 99
2020-02-16 07:00:00 4.7 9 Sur 16 Sudoeste 0 -- -- 99
2020-02-16 06:00:00 4.1 7 Sur 15 Sur 0 -- -- 97
2020-02-16 05:00:00 4.6 10 Sur 14 Sur 0 -- -- 98
2020-02-16 04:00:00 4.9 9 Sur 15 Sudoeste 0 -- -- 96
2020-02-16 03:00:00 5.4 8 Sudoeste 17 Sur 0 -- -- 93
2020-02-16 02:00:00 4.7 10 Sur 14 Sur 0 -- -- 96
2020-02-16 01:00:00 5.6 8 Sur 18 Sur 0 -- -- 92
2020-02-16 00:00:00 6.8 13 Sur 21 Sur 0 -- -- 92
2020-02-15 23:00:00 7.6 15 Sur 21 Sur 0 -- -- 89
2020-02-15 22:00:00 7.5 15 Sur 20 Sur 0 -- -- 81
2020-02-15 21:00:00 7.9 16 Sudoeste 21 Sudoeste 0 -- -- 79
2020-02-15 20:00:00 8 5 Sur 9 Sudeste 0 -- -- 87
2020-02-15 19:00:00 12.6 3 Oeste 4 Oeste 0 -- -- 72
2020-02-15 18:00:00 15.9 3 Oeste 10 Sudoeste 0 -- -- 61
2020-02-15 17:00:00 14.8 8 Sudoeste 12 Sudoeste 0 -- -- 61
2020-02-15 16:00:00 15.4 7 Oeste 16 Sudoeste 0 -- -- 61
2020-02-15 15:00:00 15.2 7 Oeste 18 Sudoeste 0 -- -- 64
2020-02-15 14:00:00 14.6 8 Sudoeste 17 Sudoeste 0 -- -- 67
2020-02-15 13:00:00 15.3 4 Oeste 12 Oeste 0 -- -- 66
2020-02-15 12:00:00 13.2 9 Oeste 15 Oeste 0 -- -- 78
2020-02-15 11:00:00 9.5 7 Sudoeste 10 Sudoeste 0 -- -- 89
2020-02-15 10:00:00 6.3 4 Sudeste 8 Este 0 -- -- 95
2020-02-15 09:00:00 1.5 0 Calma 8 Este 0 -- -- 100
2020-02-15 08:00:00 0.8 3 Sur 5 Sur 0 -- -- 100
2020-02-15 07:00:00 -0.1 3 Sur 8 Sur 0 -- -- 100
2020-02-15 06:00:00 0.2 6 Sudeste 8 Sudeste 0 -- -- 100
2020-02-15 05:00:00 0.2 0 Calma 5 Sudoeste 0 -- -- 100
2020-02-15 04:00:00 0.2 2 Sur 6 Sudoeste 0 -- -- 98
2020-02-15 03:00:00 1.1 0 Calma 5 Este 0 -- -- 97
2020-02-15 02:00:00 2.8 2 Este 8 Sudeste 0 -- -- 96
2020-02-15 01:00:00 3 6 Sudeste 10 Sudeste 0 -- -- 98
2020-02-15 00:00:00 3.4 5 Sur 9 Sur 0 -- -- 97
2020-02-14 23:00:00 3.3 5 Sudeste 8 Sudeste 0 -- -- 98
2020-02-14 22:00:00 4 3 Este 5 Nordeste 0 -- -- 98
2020-02-14 21:00:00 5.2 3 Este 7 Nordeste 0 -- -- 95
2020-02-14 20:00:00 6.9 6 Nordeste 12 Norte 0 -- -- 88
2020-02-14 19:00:00 10.1 5 Norte 8 Norte 0 -- -- 76
2020-02-14 18:00:00 13.3 4 Nordeste 6 Nordeste 0 -- -- 65
2020-02-14 17:00:00 14.6 4 Este 13 Norte 0 -- -- 62
2020-02-14 16:00:00 12.9 9 Norte 14 Norte 0 -- -- 72
2020-02-14 15:00:00 11.7 8 Norte 14 Norte 0 -- -- 76
2020-02-14 14:00:00 12 4 Norte 11 Norte 0 -- -- 77
2020-02-14 13:00:00 12.7 4 Nordeste 11 Norte 0 -- -- 76
2020-02-14 12:00:00 11.9 3 Este 5 Este 0 -- -- 74
2020-02-14 11:00:00 9.8 2 Sudeste 5 Este 0 -- -- 81
2020-02-14 10:00:00 8.3 0 Calma 3 Norte 0 -- -- 80
2020-02-14 09:00:00 1.7 0 Calma 3 Sudoeste 0 -- -- 99
2020-02-14 08:00:00 -0.2 2 Sudoeste 4 Sudoeste 0 -- -- 100
2020-02-14 07:00:00 1 0 Calma 6 Sur 0 -- -- 100
2020-02-14 06:00:00 1.5 6 Sudeste 8 Sudeste 0 -- -- 100
2020-02-14 05:00:00 2.8 4 Sur 6 Sur 0 -- -- 100
2020-02-14 04:00:00 2.8 4 Sur 14 Sur 0 -- -- 100
2020-02-14 03:00:00 2.4 6 Sur 12 Sudeste 0 -- -- 100
2020-02-14 02:00:00 3.1 4 Sur 9 Sudeste 0 -- -- 99
2020-02-14 01:00:00 4.1 5 Sur 15 Sudoeste 0 -- -- 99
2020-02-14 00:00:00 5.4 11 Sudoeste 16 Sur 0 -- -- 97
2020-02-13 23:00:00 5.6 9 Sudoeste 13 Sur 0 -- -- 96
2020-02-13 22:00:00 5.3 10 Sudoeste 15 Sudoeste 0 -- -- 96
2020-02-13 21:00:00 7.4 12 Sudoeste 17 Sudoeste 0 -- -- 90
2020-02-13 20:00:00 7.6 10 Sudoeste 17 Sudoeste 0 -- -- 87
2020-02-13 19:00:00 9.7 10 Oeste 19 Sudoeste 0 -- -- 83
2020-02-13 18:00:00 12.7 18 Oeste 27 Sudoeste 0 -- -- 68
2020-02-13 17:00:00 13 14 Sudoeste 28 Oeste 0 -- -- 71
2020-02-13 16:00:00 13 22 Sudoeste 32 Sudoeste 0 -- -- 71
2020-02-13 15:00:00 13.3 23 Sudoeste 33 Sudoeste 0 -- -- 67
2020-02-13 14:00:00 12.8 24 Sudoeste 32 Sudoeste 0 -- -- 71
2020-02-13 13:00:00 12.7 25 Sudoeste 31 Sudoeste 0 -- -- 74
2020-02-13 12:00:00 11 15 Sudoeste 22 Oeste 0 -- -- 81
2020-02-13 11:00:00 10.3 13 Oeste 18 Sudoeste 0 -- -- 87
2020-02-13 10:00:00 9.4 14 Sudoeste 19 Sudoeste 0 -- -- 91
2020-02-13 09:00:00 8.9 12 Oeste 22 Sudoeste 0 -- -- 94
2020-02-13 08:00:00 9.1 17 Sudoeste 28 Sudoeste 0 -- -- 95
2020-02-13 07:00:00 9.4 19 Sudoeste 30 Sudoeste 0 -- -- 95
2020-02-13 06:00:00 9.2 19 Sudoeste 31 Sudoeste 0 -- -- 97
2020-02-13 05:00:00 9.3 20 Sudoeste 30 Sudoeste 0 -- -- 96
2020-02-13 04:00:00 9.3 20 Sudoeste 28 Sudoeste 0 -- -- 96
2020-02-13 03:00:00 9 14 Sudoeste 24 Sudoeste 0 -- -- 98
2020-02-13 02:00:00 8.5 20 Sudoeste 30 Sudoeste 0 -- -- 100
2020-02-13 01:00:00 8 21 Sudoeste 27 Sudoeste 0 -- -- 100
2020-02-13 00:00:00 8.8 15 Sudoeste 23 Sudoeste 0 -- -- 95
2020-02-12 23:00:00 9.5 10 Sur 18 Sudoeste 0 -- -- 94
2020-02-12 22:00:00 8.7 5 Sur 8 Sudeste 0 -- -- 96
2020-02-12 21:00:00 8 3 Sur 7 Sur 0 -- -- 95
2020-02-12 20:00:00 9.5 2 Sur 3 Sudeste 0 -- -- 91
2020-02-12 19:00:00 11.2 0 Calma 8 Noroeste 0 -- -- 87
2020-02-12 18:00:00 12.7 4 Noroeste 8 Noroeste 0 -- -- 81
2020-02-12 17:00:00 13.9 6 Noroeste 9 Noroeste 0 -- -- 74
2020-02-12 16:00:00 15.4 0 Calma 6 Noroeste 0 -- -- 67
2020-02-12 15:00:00 14.4 4 Noroeste 9 Noroeste 0 -- -- 71
2020-02-12 14:00:00 15 5 Nordeste 11 Nordeste 0 -- -- 66
2020-02-12 13:00:00 14.9 4 Nordeste 8 Sudeste 0 -- -- 68
2020-02-12 12:00:00 11.9 5 Sudeste 8 Sudeste 0 -- -- 87
2020-02-12 11:00:00 9.8 3 Sudeste 8 Este 0 -- -- 93
2020-02-12 10:00:00 7.9 6 Este 8 Este 0 -- -- 99
2020-02-12 09:00:00 7 6 Oeste 11 Oeste 0 -- -- 100
2020-02-12 08:00:00 6.3 4 Sur 10 Sur 0 -- -- 100
2020-02-12 07:00:00 6.5 6 Sudoeste 8 Sudoeste 0 -- -- 100
2020-02-12 06:00:00 6.1 3 Sur 7 Sur 0 -- -- 100
2020-02-12 05:00:00 7.5 6 Sur 8 Este 0 -- -- 98
2020-02-12 04:00:00 7.7 5 Norte 27 Noroeste 0 -- -- 97
2020-02-12 03:00:00 8 3 Sur 11 Sur 0 -- -- 97
2020-02-12 02:00:00 8.1 10 Sur 14 Sur 0 -- -- 95
2020-02-12 01:00:00 7.9 5 Sur 12 Sur 0 -- -- 96
2020-02-12 00:00:00 8.4 0 Calma 9 Sur 0 -- -- 98
2020-02-11 23:00:00 9.2 3 Sudeste 5 Sur 0 -- -- 97
2020-02-11 22:00:00 9.4 4 Sudoeste 6 Sur 0 -- -- 96
2020-02-11 21:00:00 10.1 0 Calma 6 Sudeste 0 -- -- 93
2020-02-11 20:00:00 10.6 4 Sudeste 9 Este 0 -- -- 92
2020-02-11 19:00:00 11.1 7 Este 10 Este 0 -- -- 90
2020-02-11 18:00:00 12.7 2 Sudeste 5 Sudeste 0 -- -- 82
2020-02-11 17:00:00 13.3 0 Calma 9 Sudoeste 0 -- -- 76
2020-02-11 16:00:00 12.8 5 Sudoeste 10 Sudoeste 0 -- -- 77
2020-02-11 15:00:00 12.8 0 Calma 16 Oeste 0 -- -- 75
2020-02-11 14:00:00 12.2 9 Noroeste 16 Noroeste 0 -- -- 78
2020-02-11 13:00:00 9.4 6 Sudoeste 12 Sudoeste 0 -- -- 88
2020-02-11 12:00:00 8.4 7 Oeste 13 Sudoeste 0 -- -- 95
2020-02-11 11:00:00 8 9 Oeste 13 Oeste 0 -- -- 96
2020-02-11 10:00:00 7.5 2 Sur 5 Norte 0 -- -- 93
2020-02-11 09:00:00 3.8 6 Norte 8 Norte 0 -- -- 99
2020-02-11 08:00:00 3.9 3 Sur 9 Sur 0 -- -- 100
2020-02-11 07:00:00 5 6 Sur 12 Sur 0 -- -- 100
2020-02-11 06:00:00 5 7 Sur 14 Sur 0 -- -- 99
2020-02-11 05:00:00 4.9 8 Sudeste 11 Sudeste 0 -- -- 100
2020-02-11 04:00:00 4.8 5 Sur 13 Sur 0 -- -- 99
2020-02-11 03:00:00 5.5 9 Sur 13 Sur 0 -- -- 98
2020-02-11 02:00:00 6.3 8 Sur 14 Sudoeste 0 -- -- 97
2020-02-11 01:00:00 8.4 15 Sudoeste 18 Sudoeste 0 -- -- 94
2020-02-11 00:00:00 7.7 15 Sudoeste 22 Sudoeste 0 -- -- 95
2020-02-10 23:00:00 9 15 Sudoeste 24 Sudoeste 0 -- -- 92
2020-02-10 22:00:00 9.4 14 Sur 21 Sur 0 -- -- 90
2020-02-10 21:00:00 9.2 9 Sur 25 Sudoeste 0 -- -- 88
2020-02-10 20:00:00 10.5 17 Sudoeste 30 Sudoeste 0 -- -- 84
2020-02-10 19:00:00 11.3 18 Sudoeste 33 Sudoeste 0 -- -- 83
2020-02-10 18:00:00 13.4 24 Sudoeste 35 Sudoeste 0 -- -- 75
2020-02-10 17:00:00 14.6 25 Sudoeste 35 Sudoeste 0 -- -- 72
2020-02-10 16:00:00 14.5 27 Sudoeste 36 Sudoeste 0 -- -- 71
2020-02-10 15:00:00 13.8 23 Sudoeste 37 Sudoeste 0 -- -- 76
2020-02-10 14:00:00 13.3 21 Sudoeste 32 Sudoeste 0 -- -- 79
2020-02-10 13:00:00 13 21 Sudoeste 29 Sudoeste 0 -- -- 80
2020-02-10 12:00:00 12.1 17 Sudoeste 28 Sudoeste 0 -- -- 85
2020-02-10 11:00:00 11.7 21 Sudoeste 31 Sudoeste 0 -- -- 86
2020-02-10 10:00:00 10.9 18 Sudoeste 27 Sudoeste 0 -- -- 88
2020-02-10 09:00:00 10 19 Sudoeste 28 Sudoeste 0 -- -- 91
2020-02-10 08:00:00 9.4 15 Sudoeste 26 Sudoeste 0 -- -- 92
2020-02-10 07:00:00 9 14 Sur 23 Sur 0 -- -- 92
2020-02-10 06:00:00 8.7 13 Sudoeste 21 Sur 0 -- -- 91
2020-02-10 05:00:00 8.9 14 Sudoeste 24 Sudoeste 0 -- -- 89
2020-02-10 04:00:00 8.3 15 Sudoeste 29 Sudoeste 0 -- -- 90
2020-02-10 03:00:00 9.4 15 Sur 22 Sur 0 -- -- 86
2020-02-10 02:00:00 9.7 13 Sudoeste 27 Sur 0 -- -- 86
2020-02-10 01:00:00 10 19 Sur 26 Sudoeste 0 -- -- 85
2020-02-10 00:00:00 10 18 Sur 24 Sur 0 -- -- 85
2020-02-09 23:00:00 9.9 14 Sur 25 Sur 0 -- -- 85
2020-02-09 22:00:00 10 17 Sudoeste 24 Sudoeste 0 -- -- 85
2020-02-09 21:00:00 10.1 13 Sur 24 Sur 0 -- -- 85
2020-02-09 20:00:00 10.5 13 Sudoeste 26 Sur 0 -- -- 84
2020-02-09 19:00:00 11.1 18 Sudoeste 30 Sudoeste 0 -- -- 82
2020-02-09 18:00:00 12.2 16 Sudoeste 24 Sudoeste 0 -- -- 79
2020-02-09 17:00:00 12.9 17 Sudoeste 24 Sudoeste 0 -- -- 74
2020-02-09 16:00:00 13 17 Sudoeste 29 Sudoeste 0 -- -- 74
2020-02-09 15:00:00 12.7 16 Sudoeste 27 Sudoeste 0 -- -- 75
2020-02-09 14:00:00 12.5 18 Sudoeste 27 Sudoeste 0 -- -- 75
2020-02-09 13:00:00 11.6 17 Sudoeste 28 Sudoeste 0 -- -- 80
2020-02-09 12:00:00 10.6 18 Sudoeste 24 Sudoeste 0 -- -- 86
2020-02-09 11:00:00 10.6 18 Sudoeste 25 Sudoeste 0 -- -- 87
2020-02-09 10:00:00 9.2 12 Sur 19 Sur 0 -- -- 91
2020-02-09 09:00:00 7.9 13 Sur 22 Sur 0 -- -- 93
2020-02-09 08:00:00 7.1 15 Sur 19 Sur 0 -- -- 94
2020-02-09 07:00:00 7.1 14 Sur 20 Sur 0 -- -- 93
2020-02-09 06:00:00 6.8 13 Sur 19 Sudoeste 0 -- -- 97
2020-02-09 05:00:00 3.3 7 Sur 13 Sur 0 -- -- 96
2020-02-09 04:00:00 4.6 7 Sur 10 Sur 0 -- -- 98
2020-02-09 03:00:00 4.9 5 Sudoeste 13 Sur 0 -- -- 95
2020-02-09 02:00:00 5.5 12 Sur 17 Sur 0 -- -- 94
2020-02-09 01:00:00 4.6 12 Sur 17 Sur 0 -- -- 95
2020-02-09 00:00:00 4.9 12 Sur 17 Sur 0 -- -- 96
2020-02-08 23:00:00 4.1 7 Sudoeste 12 Sudoeste 0 -- -- 91
2020-02-08 22:00:00 4.4 9 Sur 12 Sur 0 -- -- 92
2020-02-08 21:00:00 4.4 4 Sur 8 Sur 0 -- -- 93
2020-02-08 20:00:00 5.6 4 Sudoeste 8 Sudoeste 0 -- -- 90
2020-02-08 19:00:00 8 8 Sudoeste 15 Oeste 0 -- -- 83
2020-02-08 18:00:00 12.4 12 Oeste 29 Sudoeste 0 -- -- 61
2020-02-08 17:00:00 13.2 22 Sudoeste 37 Sudoeste 0 -- -- 59
2020-02-08 16:00:00 12.9 19 Sudoeste 33 Oeste 0 -- -- 63
2020-02-08 15:00:00 12.5 22 Sudoeste 30 Sudoeste 0 -- -- 68
2020-02-08 14:00:00 11.7 23 Sudoeste 29 Sudoeste 0 -- -- 75
2020-02-08 13:00:00 11.1 16 Sudoeste 22 Sudoeste 0 -- -- 76
2020-02-08 12:00:00 8.4 13 Sudoeste 27 Sudoeste 0.4 -- -- 93
2020-02-08 11:00:00 8 11 Sudoeste 16 Sur 0.2 -- -- 94
2020-02-08 10:00:00 7.4 7 Sudoeste 13 Sur 0 -- -- 89
2020-02-08 09:00:00 7.5 6 Sudoeste 18 Sur 0 -- -- 88
2020-02-08 08:00:00 7 12 Sur 19 Sur 0 -- -- 89
2020-02-08 07:00:00 7.6 17 Sur 28 Sur 0 -- -- 87
2020-02-08 06:00:00 6.5 19 Sudoeste 25 Sudoeste 0 -- -- 91
2020-02-08 05:00:00 5.2 9 Sudoeste 20 Sudoeste 0 -- -- 95
2020-02-08 04:00:00 6.6 12 Sudoeste 23 Sur 0 -- -- 91
2020-02-08 03:00:00 7.2 14 Sudoeste 21 Sudoeste 0 -- -- 91
2020-02-08 02:00:00 8.2 14 Sur 20 Sudoeste 0 -- -- 87
2020-02-08 01:00:00 8.1 13 Sudoeste 21 Sudoeste 0 -- -- 88
2020-02-08 00:00:00 8.9 14 Sudoeste 25 Sudoeste 0 -- -- 86
2020-02-07 23:00:00 9.2 14 Sudoeste 22 Sur 0 -- -- 85
2020-02-07 22:00:00 9.2 13 Sur 22 Sur 0 -- -- 86
2020-02-07 21:00:00 8.4 10 Sur 14 Sur 0 -- -- 87
2020-02-07 20:00:00 7 6 Sudoeste 8 Sudoeste 0 -- -- 88
2020-02-07 19:00:00 10 4 Sudeste 5 Sudeste 0 -- -- 81
2020-02-07 18:00:00 12.9 3 Sur 9 Sudoeste 0 -- -- 67
2020-02-07 17:00:00 12.8 7 Sudoeste 10 Sudoeste 0 -- -- 66
2020-02-07 16:00:00 14.7 3 Sur 12 Sudoeste 0 -- -- 61
2020-02-07 15:00:00 14.4 4 Sur 14 Sur 0 -- -- 64
2020-02-07 14:00:00 13.3 6 Sudeste 13 Sudeste 0 -- -- 67
2020-02-07 13:00:00 11.2 3 Sur 5 Sudeste 0 -- -- 73
2020-02-07 12:00:00 9.6 0 Calma 4 Sur 0 -- -- 84
2020-02-07 11:00:00 9.1 0 Calma 4 Sudeste 0 -- -- 82
2020-02-07 10:00:00 6.9 2 Sudeste 6 Sur 0 -- -- 86
2020-02-07 09:00:00 0.9 4 Sur 5 Sur 0 -- -- 98
2020-02-07 08:00:00 0.3 2 Sur 6 Sur 0 -- -- 99
2020-02-07 07:00:00 0.9 4 Sur 5 Sur 0 -- -- 99
2020-02-07 06:00:00 1.7 3 Sur 9 Sudoeste 0 -- -- 99
2020-02-07 05:00:00 1.9 7 Sudoeste 10 Sur 0 -- -- 98
2020-02-07 04:00:00 2.3 7 Sur 9 Sur 0 -- -- 97
2020-02-07 03:00:00 2.1 8 Sur 10 Sur 0 -- -- 95
2020-02-07 02:00:00 3 2 Sur 10 Sur 0 -- -- 93
2020-02-07 01:00:00 4.3 6 Sur 16 Sudeste 0 -- -- 89
2020-02-07 00:00:00 4.5 6 Sur 16 Sur 0 -- -- 89
2020-02-06 23:00:00 5.3 11 Sur 16 Sudeste 0 -- -- 88
2020-02-06 22:00:00 4.6 5 Sudeste 8 Sudeste 0 -- -- 90
2020-02-06 21:00:00 4.3 0 Calma 2 Sudeste 0 -- -- 93
2020-02-06 20:00:00 6.7 0 Calma 4 Noroeste 0 -- -- 84
2020-02-06 19:00:00 8.3 3 Noroeste 9 Noroeste 0 -- -- 76
2020-02-06 18:00:00 11.4 9 Noroeste 14 Noroeste 0 -- -- 65
2020-02-06 17:00:00 14.9 12 Oeste 15 Noroeste 0 -- -- 48
2020-02-06 16:00:00 15.2 7 Noroeste 11 Oeste 0 -- -- 46
2020-02-06 15:00:00 14.9 5 Noroeste 10 Oeste 0 -- -- 48
2020-02-06 14:00:00 13.6 6 Oeste 12 Oeste 0 -- -- 58
2020-02-06 13:00:00 12.7 3 Noroeste 4 Norte 0 -- -- 58
2020-02-06 12:00:00 9.9 2 Noroeste 8 Oeste 0 -- -- 69
2020-02-06 11:00:00 7.4 3 Oeste 5 Oeste 0 -- -- 73
2020-02-06 10:00:00 5.6 0 Calma 4 Sudeste 0 -- -- 74
2020-02-06 09:00:00 -0.8 2 Sudeste 4 Sudeste 0 -- -- 97
2020-02-06 08:00:00 -2.1 0 Calma 5 Sur 0 -- -- 99
2020-02-06 07:00:00 -1.5 3 Sur 6 Sur 0 -- -- 98
2020-02-06 06:00:00 -1.9 3 Sur 4 Sur 0 -- -- 99
2020-02-06 05:00:00 -1.6 0 Calma 3 Este 0 -- -- 99
2020-02-06 04:00:00 -1.1 0 Calma 4 Sudoeste 0 -- -- 98
2020-02-06 03:00:00 -0.6 2 Sur 6 Sur 0 -- -- 99
2020-02-06 02:00:00 -0.6 3 Sur 6 Sur 0 -- -- 98
2020-02-06 01:00:00 -0.3 3 Sudeste 4 Sudeste 0 -- -- 98
2020-02-06 00:00:00 0.3 0 Calma 2 Sur 0 -- -- 98
2020-02-05 23:00:00 1.4 0 Calma 7 Sudeste 0 -- -- 95
2020-02-05 22:00:00 1.8 4 Sur 5 Sur 0 -- -- 95
2020-02-05 21:00:00 2.3 2 Sudoeste -- -- 0 -- -- 92
2020-02-05 20:00:00 3.9 3 Oeste 5 Oeste 0 -- -- 89
2020-02-05 19:00:00 7 2 Noroeste 6 Noroeste 0 -- -- 79
2020-02-05 18:00:00 11.9 5 Norte 10 Norte 0 -- -- 58
2020-02-05 17:00:00 12.1 8 Norte 14 Norte 0 -- -- 53
2020-02-05 16:00:00 11.8 6 Norte 12 Norte 0 -- -- 53
2020-02-05 15:00:00 10.6 8 Nordeste 15 Nordeste 0 -- -- 59
2020-02-05 14:00:00 8.9 7 Norte 14 Norte 0 -- -- 64
2020-02-05 13:00:00 7.4 9 Nordeste 15 Nordeste 0 -- -- 69
2020-02-05 12:00:00 5.6 9 Nordeste 15 Nordeste 0 -- -- 75
2020-02-05 11:00:00 4.3 8 Norte 12 Norte 0 -- -- 82
2020-02-05 10:00:00 2.2 7 Noroeste 10 Noroeste 0 -- -- 91
2020-02-05 09:00:00 -1.5 4 Oeste 4 Oeste 0 -- -- 98
2020-02-05 08:00:00 -2.4 2 Oeste 5 Noroeste 0 -- -- 100
2020-02-05 07:00:00 -1.6 2 Oeste 5 Noroeste 0 -- -- 100
2020-02-05 06:00:00 -1.7 3 Sudoeste 4 Oeste 0 -- -- 100
2020-02-05 05:00:00 -0.1 3 Este 6 Nordeste 0 -- -- 100
2020-02-05 04:00:00 0.8 0 Calma 14 Nordeste 0 -- -- 99
2020-02-05 03:00:00 3.1 8 Nordeste 13 Nordeste 0 -- -- 95
2020-02-05 02:00:00 3 7 Nordeste 10 Nordeste 0 -- -- 98
2020-02-05 01:00:00 3.4 8 Nordeste 11 Nordeste 0 -- -- 96
2020-02-05 00:00:00 4 8 Nordeste 11 Nordeste 0 -- -- 96
2020-02-04 23:00:00 5.3 6 Nordeste 12 Nordeste 0 -- -- 95
2020-02-04 22:00:00 4.9 4 Sudeste 8 Nordeste 0 -- -- 98
2020-02-04 21:00:00 7 8 Nordeste 12 Nordeste 0 -- -- 93
2020-02-04 20:00:00 6.9 4 Oeste 6 Oeste 0 -- -- 97
2020-02-04 19:00:00 8.6 0 Calma 9 Noroeste 0 -- -- 91
2020-02-04 18:00:00 11.4 8 Noroeste 13 Noroeste 0 -- -- 80
2020-02-04 12:00:00 -- -- -- -- -- -- -- -- --
2020-02-04 11:00:00 12.9 9 Oeste 22 Sudoeste 0 -- -- 78
2020-02-04 10:00:00 9 14 Sur 18 Sur 0 -- -- 88
2020-02-04 09:00:00 4.5 3 Sur 8 Sur 0 -- -- 92
2020-02-04 08:00:00 3.3 6 Sur 9 Sur 0 -- -- 96
2020-02-04 07:00:00 2 2 Sudoeste 9 Sur 0 -- -- 97
2020-02-04 06:00:00 2.2 8 Sudeste 10 Sudeste 0 -- -- 98
2020-02-04 05:00:00 3.4 6 Sur 9 Sur 0 -- -- 95
2020-02-04 04:00:00 3.6 3 Este 6 Sur 0 -- -- 95
2020-02-04 03:00:00 4.3 5 Sudeste 10 Sur 0 -- -- 95
2020-02-04 02:00:00 4.4 6 Nordeste 9 Este 0 -- -- 96
2020-02-04 01:00:00 5.8 5 Sudoeste 12 Sudoeste 0 -- -- 94
2020-02-04 00:00:00 6.3 5 Sur 10 Sur 0 -- -- 93
2020-02-03 23:00:00 7.8 6 Sudoeste 12 Sur 0 -- -- 86
2020-02-03 22:00:00 8.4 7 Sur 14 Sudeste 0 -- -- 88
2020-02-03 21:00:00 9.2 10 Sudeste 12 Sudeste 0 -- -- 85
2020-02-03 20:00:00 9 5 Este 13 Este 0 -- -- 89
2020-02-03 19:00:00 11 2 Norte 24 Sudeste 0 -- -- 86
2020-02-03 18:00:00 15 9 Sudeste 13 Sudeste 0 -- -- 73
2020-02-03 17:00:00 18 2 Sudoeste 12 Oeste 0 -- -- 58
2020-02-03 16:00:00 16.8 9 Noroeste 18 Noroeste 0 -- -- 61
2020-02-03 15:00:00 16.1 12 Oeste 18 Oeste 0 -- -- 66
2020-02-03 14:00:00 16.7 9 Oeste 14 Oeste 0 -- -- 64
2020-02-03 13:00:00 14.7 6 Oeste 10 Noroeste 0 -- -- 66
2020-02-03 12:00:00 13.5 5 Noroeste 8 Noroeste 0 -- -- 67
2020-02-03 11:00:00 11.7 0 Calma 4 Oeste 0 -- -- 72
2020-02-03 10:00:00 6.1 0 Calma 4 Noroeste 0 -- -- 89
2020-02-03 09:00:00 4.6 0 Calma 7 Este 0 -- -- 93
2020-02-03 08:00:00 3.4 4 Este 7 Nordeste 0 -- -- 99
2020-02-03 07:00:00 2.9 5 Este 7 Este 0 -- -- 98
2020-02-03 06:00:00 4.2 2 Este 7 Sudeste 0 -- -- 95
2020-02-03 05:00:00 5.5 6 Sudeste 9 Sudeste 0 -- -- 93
2020-02-03 04:00:00 5.8 2 Sudeste 9 Sur 0 -- -- 98
2020-02-03 03:00:00 5.7 5 Sur 8 Sudeste 0 -- -- 99
2020-02-03 02:00:00 6.2 5 Sudeste 12 Sudeste 0 -- -- 99
2020-02-03 01:00:00 5.8 7 Este 9 Este 0 -- -- 99
2020-02-03 00:00:00 7.4 0 Calma 15 Sur 0 -- -- 95
2020-02-02 23:00:00 9.7 12 Sur 15 Sur 0 -- -- 92
2020-02-02 22:00:00 9.5 11 Sur 14 Sur 0 -- -- 93
2020-02-02 21:00:00 9.9 3 Sudeste 10 Sur 0 -- -- 92
2020-02-02 20:00:00 10.7 4 Sudeste 12 Sur 0 -- -- 95
2020-02-02 19:00:00 12.8 5 Este 8 Este 0 -- -- 89
2020-02-02 18:00:00 19.3 0 Calma 12 Oeste 0 -- -- 62
2020-02-02 17:00:00 19.7 6 Oeste 12 Oeste 0 -- -- 59
2020-02-02 16:00:00 17.8 5 Sur 12 Sudeste 0 -- -- 68
2020-02-02 15:00:00 17.5 6 Sudoeste 12 Sudoeste 0 -- -- 65
2020-02-02 14:00:00 17.1 4 Sur 11 Sur 0 -- -- 69
2020-02-02 13:00:00 14.4 4 Sur 12 Sur 0 -- -- 78
2020-02-02 12:00:00 13.7 8 Sur 17 Sudeste 0 -- -- 80
2020-02-02 11:00:00 13.4 10 Sudeste 13 Sudeste 0 -- -- 85
2020-02-02 10:00:00 11.7 8 Sur 17 Sudoeste 0 -- -- 87
2020-02-02 09:00:00 10.9 13 Sudoeste 19 Sur 0 -- -- 90
2020-02-02 08:00:00 9.8 14 Sur 19 Sur 0 -- -- 93
2020-02-02 07:00:00 8.9 14 Sur 23 Sur 0 -- -- 94
2020-02-02 06:00:00 9.2 14 Sur 26 Sudoeste 0 -- -- 93
2020-02-02 05:00:00 10 19 Sudoeste 26 Sudoeste 0 -- -- 92
2020-02-02 04:00:00 10.2 17 Sudoeste 35 Sudoeste 0 -- -- 92
2020-02-02 03:00:00 8.9 13 Sur 20 Sur 0 -- -- 94
2020-02-02 02:00:00 9.7 15 Sur 23 Sur 0 -- -- 93
2020-02-02 01:00:00 10.3 16 Sur 24 Sur 0 -- -- 91
2020-02-02 00:00:00 10.8 13 Sur 23 Sur 0 -- -- 92
2020-02-01 23:00:00 11.7 16 Sur 23 Sudoeste 0 -- -- 90
2020-02-01 22:00:00 11.7 14 Sur 22 Sur 0 -- -- 91
2020-02-01 21:00:00 11.7 15 Sur 22 Sudoeste 0 -- -- 90
2020-02-01 20:00:00 12.6 13 Sudoeste 19 Sur 0 -- -- 89
2020-02-01 19:00:00 12.3 11 Sur 18 Sudoeste 0 -- -- 88
2020-02-01 18:00:00 14.9 12 Sudoeste 28 Sudoeste 0 -- -- 76
2020-02-01 17:00:00 16.1 17 Sudoeste 33 Sudoeste 0 -- -- 74
2020-02-01 16:00:00 16 20 Oeste 36 Sudoeste 0 -- -- 75
2020-02-01 15:00:00 15.3 27 Sudoeste 36 Sudoeste 0 -- -- 78
2020-02-01 14:00:00 15.2 30 Sudoeste 38 Sudoeste 0 -- -- 78
2020-02-01 13:00:00 14.9 27 Sudoeste 38 Sudoeste 0 -- -- 80
2020-02-01 12:00:00 13.7 24 Sudoeste 50 Sudoeste 0 -- -- 85
2020-02-01 11:00:00 13.3 25 Sudoeste 36 Sudoeste 0 -- -- 87
2020-02-01 10:00:00 12.5 21 Sudoeste 27 Sudoeste 0 -- -- 89
2020-02-01 09:00:00 11.5 15 Sudoeste 25 Sudoeste 0 -- -- 94
2020-02-01 08:00:00 11.4 18 Sudoeste 24 Sudoeste 0 -- -- 95
2020-02-01 07:00:00 11.5 9 Sur 30 Sudoeste 0 -- -- 95
2020-02-01 06:00:00 11.9 19 Sudoeste 30 Sudoeste 0 -- -- 94
2020-02-01 05:00:00 11.3 13 Sudoeste 28 Sudoeste 0 -- -- 97
2020-02-01 04:00:00 11.8 21 Sudoeste 33 Sudoeste 0 -- -- 95
2020-02-01 03:00:00 12 22 Sudoeste 35 Sur 0 -- -- 94
2020-02-01 02:00:00 11.9 25 Sudoeste 37 Sudoeste 0 -- -- 93
2020-02-01 01:00:00 11.5 23 Sudoeste 35 Sur 0 -- -- 92
2020-02-01 00:00:00 11.2 14 Sur 27 Sur 0.4 -- -- 94
2020-01-31 23:00:00 11.4 20 Sur 29 Sudoeste 0 -- -- 92
2020-01-31 22:00:00 11.5 14 Sur 23 Sur 0 -- -- 90
2020-01-31 21:00:00 11.6 13 Sudoeste 24 Sur 0 -- -- 88
2020-01-31 20:00:00 12.1 17 Sudoeste 23 Sur 0 -- -- 86
2020-01-31 19:00:00 11.9 11 Sur 20 Sudoeste 0 -- -- 86
2020-01-31 18:00:00 13.1 14 Sudoeste 26 Sur 0 -- -- 80
2020-01-31 17:00:00 14.6 18 Sudoeste 25 Sudoeste 0 -- -- 75
2020-01-31 16:00:00 14.7 19 Sudoeste 26 Sudoeste 0 -- -- 71
2020-01-31 15:00:00 14.3 21 Sudoeste 33 Sudoeste 0 -- -- 75
2020-01-31 14:00:00 13.6 16 Sudoeste 27 Sudoeste 0 -- -- 76
2020-01-31 13:00:00 13.7 18 Sudoeste 25 Sudoeste 0 -- -- 73
2020-01-31 12:00:00 12.8 14 Sur 21 Sur 0 -- -- 80
2020-01-31 11:00:00 11.4 12 Sur 18 Sur 0 -- -- 91
2020-01-31 10:00:00 10.1 5 Sur 19 Sudoeste 0 -- -- 97
2020-01-31 09:00:00 9.8 12 Sudoeste 17 Sudoeste 0 -- -- 94
2020-01-31 08:00:00 9.4 7 Sur 26 Sur 0 -- -- 97
2020-01-31 07:00:00 9.8 21 Sudoeste 29 Sudoeste 0 -- -- 95
2020-01-31 06:00:00 9.8 18 Sudoeste 26 Sur 0 -- -- 95
2020-01-31 05:00:00 9.4 10 Sudoeste 26 Sudoeste 0.2 -- -- 98
2020-01-31 04:00:00 9.7 18 Sudoeste 32 Sudoeste 0 -- -- 96
2020-01-31 03:00:00 9.7 19 Sudoeste 28 Sudoeste 0 -- -- 95
2020-01-31 02:00:00 9.9 21 Sudoeste 35 Sudoeste 0 -- -- 93
2020-01-31 01:00:00 9.8 23 Sudoeste 31 Sudoeste 0 -- -- 93
2020-01-31 00:00:00 9.9 18 Sudoeste 29 Sur 0 -- -- 91
2020-01-30 23:00:00 9.6 21 Sudoeste 33 Sudoeste 0 -- -- 91
2020-01-30 22:00:00 9.7 27 Sudoeste 38 Sudoeste 0 -- -- 90
2020-01-30 21:00:00 9.5 22 Sudoeste 31 Sudoeste 0 -- -- 91
2020-01-30 20:00:00 9.5 18 Sudoeste 28 Sur 0 -- -- 90
2020-01-30 19:00:00 9.7 18 Sur 29 Sur 0 -- -- 88
2020-01-30 18:00:00 10 18 Sur 30 Sur 0 -- -- 87
2020-01-30 17:00:00 10.2 19 Sur 32 Sur 0 -- -- 86
2020-01-30 16:00:00 10.2 22 Sur 43 Sur 0 -- -- 84
2020-01-30 15:00:00 10.2 20 Sur 30 Sudoeste 0 -- -- 82
2020-01-30 14:00:00 10 20 Sur 30 Sudoeste 0 -- -- 82
2020-01-30 13:00:00 9.8 21 Sudoeste 33 Sudoeste 0 -- -- 81
2020-01-30 12:00:00 9.5 19 Sur 30 Sudoeste 0 -- -- 84
2020-01-30 11:00:00 8.9 14 Sudoeste 21 Sur 0 -- -- 87
2020-01-30 10:00:00 7.7 11 Sudeste 15 Sur 0 -- -- 92
2020-01-30 09:00:00 7.5 10 Sur 18 Sur 0 -- -- 92
2020-01-30 08:00:00 7.4 12 Sur 24 Sudoeste 0 -- -- 91
2020-01-30 07:00:00 7.5 14 Sur 21 Sur 0 -- -- 92
2020-01-30 06:00:00 7.6 14 Sur 22 Sudoeste 0 -- -- 91
2020-01-30 05:00:00 8.3 15 Sur 21 Sudoeste 0 -- -- 91
2020-01-30 04:00:00 8.1 14 Sur 24 Sur 0 -- -- 92
2020-01-30 03:00:00 8 13 Sur 20 Sur -- -- -- 92
2020-01-30 02:00:00 8.9 13 Sur 29 Sur 0 -- -- 90
2020-01-30 01:00:00 8.5 16 Sudoeste 21 Sudoeste 0 -- -- 93
2020-01-30 00:00:00 9.1 15 Sudoeste 24 Sudoeste 0 -- -- 94
2020-01-29 23:00:00 9.4 15 Sudoeste 24 Sur 0 -- -- 93
2020-01-29 22:00:00 9.9 15 Sur 24 Sudoeste 0 -- -- 93
2020-01-29 21:00:00 10.1 15 Sur 24 Sur 0 -- -- 93
2020-01-29 20:00:00 10.3 16 Sur 24 Sur 0 -- -- 92
2020-01-29 19:00:00 10.6 14 Sur 28 Sudoeste 0 -- -- 92
2020-01-29 18:00:00 11.3 17 Sudoeste 27 Sudoeste 0 -- -- 89
2020-01-29 17:00:00 12.1 18 Sudoeste 33 Sudoeste 0 -- -- 85
2020-01-29 16:00:00 12 17 Sudoeste 26 Sudoeste 0 -- -- 86
2020-01-29 15:00:00 11.2 12 Sur 21 Sudoeste 0.6 -- -- 90
2020-01-29 14:00:00 10.8 13 Sur 22 Sur 0.4 -- -- 91
2020-01-29 13:00:00 10.6 16 Sudoeste 28 Sudoeste 0.2 -- -- 91
2020-01-29 12:00:00 10.9 17 Sur 30 Sudoeste 0 -- -- 86
2020-01-29 11:00:00 10.3 18 Sur 26 Sur 0.2 -- -- 90
2020-01-29 10:00:00 9.4 16 Sur 24 Sur 0 -- -- 93
2020-01-29 09:00:00 8.8 18 Sur 28 Sur 0.2 -- -- 96
2020-01-29 08:00:00 8.8 13 Sudoeste 22 Sudoeste 0 -- -- 95
2020-01-29 07:00:00 8.9 13 Sudoeste 20 Sudoeste 0 -- -- 95
2020-01-29 06:00:00 8.9 14 Sudoeste 28 Sudoeste 0 -- -- 95
2020-01-29 05:00:00 9.2 20 Sudoeste 26 Sudoeste 0 -- -- 94
2020-01-29 04:00:00 9.3 15 Sudoeste 28 Sudoeste 0 -- -- 93
2020-01-29 03:00:00 9.4 18 Sudoeste 29 Sudoeste 0 -- -- 93
2020-01-29 02:00:00 9.6 24 Sudoeste 36 Sudoeste 0 -- -- 92
2020-01-29 01:00:00 9.9 24 Sudoeste 38 Sudoeste 0 -- -- 93
2020-01-29 00:00:00 10.3 27 Sudoeste 41 Sudoeste 0 -- -- 93
2020-01-28 23:00:00 10.3 26 Sudoeste 36 Sudoeste 0 -- -- 92
2020-01-28 22:00:00 10.2 23 Sudoeste 34 Sudoeste 0 -- -- 94
2020-01-28 21:00:00 10.1 20 Sudoeste 32 Sudoeste 0 -- -- 95
2020-01-28 20:00:00 10.3 17 Sudoeste 28 Sudoeste 0 -- -- 95
2020-01-28 19:00:00 10.2 13 Sur 25 Sudoeste 0 -- -- 97
2020-01-28 18:00:00 10.5 17 Sudoeste 36 Sudoeste 0 -- -- 95
2020-01-28 17:00:00 11.2 27 Sudoeste 41 Sudoeste 0.4 -- -- 91
2020-01-28 16:00:00 11.4 31 Sudoeste 53 Sudoeste 0 -- -- 91
2020-01-28 15:00:00 12.1 30 Sudoeste 44 Sudoeste 0 -- -- 86
2020-01-28 14:00:00 11.4 28 Sudoeste 48 Sudoeste 0 -- -- 92
2020-01-28 13:00:00 11.7 29 Sudoeste 44 Sudoeste 0 -- -- 89
2020-01-28 12:00:00 11.7 30 Sudoeste 45 Sudoeste 0 -- -- 88
2020-01-28 11:00:00 10.9 27 Sudoeste 38 Sudoeste 0 -- -- 91
2020-01-28 10:00:00 10 24 Sudoeste 32 Sudoeste 0 -- -- 94
2020-01-28 09:00:00 9 20 Sudoeste 28 Sur 0 -- -- 96
2020-01-28 08:00:00 8.7 20 Sudoeste 33 Sudoeste 0.2 -- -- 98
2020-01-28 07:00:00 9 21 Sudoeste 33 Sudoeste 0 -- -- 95
2020-01-28 06:00:00 8.9 20 Sudoeste 35 Sudoeste 0.4 -- -- 96
2020-01-28 05:00:00 9 25 Sudoeste 42 Sudoeste 0 -- -- 95
2020-01-28 04:00:00 9.6 27 Sudoeste 49 Sur 0 -- -- 90
2020-01-28 03:00:00 9.5 28 Sudoeste 43 Sudoeste 0 -- -- 91
2020-01-28 02:00:00 9.2 26 Sudoeste 41 Sur 0 -- -- 92
2020-01-28 01:00:00 9.2 32 Sudoeste 43 Sudoeste 0 -- -- 91
2020-01-28 00:00:00 8.7 29 Sudoeste 48 Sur 0 -- -- 91
2020-01-27 23:00:00 8.5 28 Sur 46 Sur 0 -- -- 91
2020-01-27 22:00:00 8.3 27 Sur 40 Sur 0 -- -- 91
2020-01-27 21:00:00 8.1 23 Sur 34 Sur 0 -- -- 90
2020-01-27 20:00:00 7.9 23 Sur 42 Sur 0 -- -- 89
2020-01-27 19:00:00 7.6 25 Sudoeste 47 Sur 0 -- -- 89
2020-01-27 18:00:00 8.4 35 Sudoeste 53 Sudoeste 0 -- -- 85
2020-01-27 17:00:00 8.5 40 Sudoeste 55 Sur 0 -- -- 83
2020-01-27 16:00:00 8.8 39 Sur 68 Sudoeste 0 -- -- 79
2020-01-27 15:00:00 9.8 48 Sudoeste 64 Sur 0 -- -- 78
2020-01-27 14:00:00 10.7 45 Sudoeste 65 Sur 0 -- -- 77
2020-01-27 13:00:00 9.2 42 Sudoeste 58 Sudoeste 0 -- -- 81
2020-01-27 12:00:00 9.1 34 Sur 51 Sur 0 -- -- 81
2020-01-27 11:00:00 7.3 18 Sur 28 Sudeste 0 -- -- 80
2020-01-27 10:00:00 6.4 20 Sur 36 Sur 0 -- -- 82
2020-01-27 09:00:00 5.5 22 Sur 32 Sur 0 -- -- 86
2020-01-27 08:00:00 4.3 19 Sudeste 26 Sudeste 0 -- -- 94
2020-01-27 07:00:00 4.2 11 Sur 15 Sur 0 -- -- 92
2020-01-27 06:00:00 3.9 9 Sur 23 Sur 0 -- -- 91
2020-01-27 05:00:00 4.4 20 Sur 26 Sur 0 -- -- 92
2020-01-27 04:00:00 3.9 12 Sur 21 Sur 0 -- -- 92
2020-01-27 03:00:00 3.9 9 Sur 20 Sur 0 -- -- 92
2020-01-27 02:00:00 5.6 14 Sur 23 Sudoeste 0 -- -- 86
2020-01-27 01:00:00 5.9 15 Sudoeste 20 Sudoeste 0 -- -- 86
2020-01-27 00:00:00 6.1 6 Sur 23 Sur 0 -- -- 87
2020-01-26 23:00:00 6.5 15 Sur 23 Sur 0 -- -- 86
2020-01-26 22:00:00 6.7 17 Sur 24 Sur 0 -- -- 85
2020-01-26 21:00:00 6.7 7 Sur 13 Sudoeste 0 -- -- 84
2020-01-26 20:00:00 6.6 9 Sudoeste 12 Sudoeste 0 -- -- 85
2020-01-26 19:00:00 6.7 7 Sur 8 Sudoeste 0 -- -- 83
2020-01-26 18:00:00 7.7 7 Sudoeste 24 Sudoeste 0 -- -- 78
2020-01-26 17:00:00 8 18 Oeste 25 Oeste 0 -- -- 74
2020-01-26 16:00:00 8.6 19 Sudoeste 28 Oeste 0 -- -- 70
2020-01-26 15:00:00 9.4 17 Sudoeste 25 Oeste 0 -- -- 70
2020-01-26 14:00:00 8.7 17 Sudoeste 22 Sudoeste 0 -- -- 75
2020-01-26 13:00:00 7.1 10 Sudoeste 19 Sur 0 -- -- 84
2020-01-26 12:00:00 4.8 11 Sudoeste 19 Sudoeste 0 -- -- 93
2020-01-26 11:00:00 4.4 10 Sudoeste 20 Sudoeste 0 -- -- 97
2020-01-26 10:00:00 3.3 14 Sudoeste 19 Sudoeste 0 -- -- 100
2020-01-26 09:00:00 1.4 10 Sudoeste 16 Sudoeste 0.2 -- -- 100
2020-01-26 08:00:00 1.2 11 Sudoeste 18 Sudoeste 0 -- -- 100
2020-01-26 07:00:00 1.2 9 Sudoeste 16 Sudoeste 0 -- -- 100
2020-01-26 06:00:00 1.8 10 Sudoeste 14 Sudoeste 0 -- -- 100
2020-01-26 05:00:00 1.5 9 Sudoeste 12 Sudoeste 0 -- -- 100
2020-01-26 04:00:00 2.2 8 Sudoeste 10 Sudoeste 0 -- -- 99
2020-01-26 03:00:00 4.6 0 Calma 15 Oeste 0 -- -- 97
2020-01-26 02:00:00 4.8 12 Oeste 19 Oeste 0 -- -- 97
2020-01-26 01:00:00 5.2 8 Oeste 13 Oeste 0 -- -- 97
2020-01-26 00:00:00 4.8 9 Sudoeste 15 Sudoeste 0 -- -- 99
2020-01-25 23:00:00 5 8 Sudoeste 10 Sur 0 -- -- 98
2020-01-25 22:00:00 5.3 5 Sudoeste 6 Sudoeste 0 -- -- 98
2020-01-25 21:00:00 5.5 5 Oeste 8 Noroeste 0 -- -- 98
2020-01-25 20:00:00 5.7 7 Oeste 10 Noroeste 0 -- -- 97
2020-01-25 19:00:00 6.3 8 Oeste 14 Oeste 0 -- -- 95
2020-01-25 18:00:00 7.4 12 Oeste 16 Oeste 0 -- -- 89
2020-01-25 17:00:00 8.7 9 Oeste 19 Oeste 0 -- -- 79
2020-01-25 16:00:00 9.6 10 Oeste 18 Oeste 0 -- -- 77
2020-01-25 15:00:00 9.1 10 Oeste 15 Oeste 0 -- -- 78
2020-01-25 14:00:00 8.5 4 Sudoeste 6 Sudoeste 0 -- -- 84
2020-01-25 13:00:00 8 0 Calma 6 Nordeste 0.2 -- -- 89
2020-01-25 12:00:00 5.7 6 Nordeste 13 Norte 0.2 -- -- 95
2020-01-25 11:00:00 5 9 Norte 14 Norte 0 -- -- 94
2020-01-25 10:00:00 3.9 7 Norte 15 Norte 0 -- -- 98
2020-01-25 09:00:00 3.3 9 Norte 13 Nordeste 0.4 -- -- 98
2020-01-25 08:00:00 3.9 10 Nordeste 14 Nordeste 0.4 -- -- 98
2020-01-25 07:00:00 3.2 6 Nordeste 10 Nordeste 0.2 -- -- 98
2020-01-25 06:00:00 3.5 8 Nordeste 12 Nordeste 0.2 -- -- 96
2020-01-25 05:00:00 3.6 8 Nordeste 10 Nordeste 0 -- -- 95
2020-01-25 04:00:00 2.7 4 Nordeste 9 Este 0 -- -- 97
2020-01-25 03:00:00 1.9 8 Nordeste 9 Nordeste 0 -- -- 98
2020-01-25 02:00:00 2.2 9 Nordeste 11 Nordeste 0 -- -- 95
2020-01-25 01:00:00 2.5 10 Este 14 Este 0 -- -- 96
2020-01-25 00:00:00 2.8 12 Este 16 Este 0 -- -- 96
2020-01-24 23:00:00 2.7 6 Este 11 Este 0 -- -- 98
2020-01-24 22:00:00 3.7 7 Este 10 Este 0 -- -- 99
2020-01-24 21:00:00 5.3 6 Nordeste 13 Nordeste 0.2 -- -- 96
2020-01-24 20:00:00 6.3 3 Nordeste 6 Norte 0.4 -- -- 95
2020-01-24 19:00:00 6.5 4 Norte 8 Noroeste 0 -- -- 93
2020-01-24 18:00:00 7.4 4 Norte 10 Oeste 0 -- -- 88
2020-01-24 17:00:00 10.1 9 Oeste 14 Oeste 0 -- -- 75
2020-01-24 16:00:00 8.7 10 Sudoeste 19 Sudoeste 0 -- -- 78
2020-01-24 15:00:00 8.9 15 Sudoeste 24 Sudoeste 0 -- -- 81
2020-01-24 14:00:00 8.4 16 Sur 22 Sur 0 -- -- 82
2020-01-24 13:00:00 8.1 13 Sudeste 20 Sudeste 0 -- -- 80
2020-01-24 12:00:00 6.1 5 Norte 9 Norte 0.4 -- -- 95
2020-01-24 11:00:00 4.7 3 Norte 8 Norte 0.2 -- -- 98
2020-01-24 10:00:00 4.6 6 Norte 9 Norte 0.2 -- -- 96
2020-01-24 09:00:00 4.6 0 Calma 6 Sudeste 0.8 -- -- 98
2020-01-24 08:00:00 4.8 5 Sudeste 10 Sudeste 0.6 -- -- 97
2020-01-24 07:00:00 4.9 5 Sudeste 17 Sudeste 0.2 -- -- 94
2020-01-24 06:00:00 4.9 9 Sudeste 12 Sudeste 0.2 -- -- 93
2020-01-24 05:00:00 5.3 10 Sudeste 23 Sudeste 0 -- -- 90
2020-01-24 04:00:00 5.2 8 Sudeste 19 Sudeste 0 -- -- 89
2020-01-24 03:00:00 5.1 15 Sudeste 22 Este 0 -- -- 88
2020-01-24 02:00:00 4.7 11 Este 15 Este 0 -- -- 90
2020-01-24 01:00:00 4.3 10 Este 16 Sudeste 0 -- -- 91
2020-01-24 00:00:00 4.6 12 Este 21 Sudeste 0 -- -- 89
2020-01-23 23:00:00 2.4 11 Este 15 Este 0 -- -- 93
2020-01-23 22:00:00 3.4 13 Este 20 Este 0 -- -- 89
2020-01-23 21:00:00 4.7 13 Este 18 Sudeste 0 -- -- 85
2020-01-23 20:00:00 5.2 13 Este 21 Este 0 -- -- 83
2020-01-23 19:00:00 5.8 14 Este 25 Este 0 -- -- 81
2020-01-23 18:00:00 7.6 14 Sudeste 28 Sudeste 0 -- -- 75
2020-01-23 17:00:00 10.1 19 Sudeste 33 Sudeste 0 -- -- 64
2020-01-23 16:00:00 10.4 25 Sudeste 32 Sudeste 0 -- -- 62
2020-01-23 15:00:00 11.4 21 Sudeste 30 Sudeste 0 -- -- 57
2020-01-23 14:00:00 10.3 18 Sudeste 30 Este 0 -- -- 64
2020-01-23 13:00:00 9.9 18 Este 29 Sudeste 0 -- -- 66
2020-01-23 12:00:00 5.2 7 Nordeste 14 Nordeste 0 -- -- 82
2020-01-23 11:00:00 3.2 7 Nordeste 18 Nordeste 0 -- -- 88
2020-01-23 10:00:00 1.6 16 Nordeste 23 Nordeste 0 -- -- 90
2020-01-23 09:00:00 0.1 12 Nordeste 20 Nordeste 0 -- -- 94
2020-01-23 08:00:00 -0.7 8 Norte 19 Norte 0 -- -- 98
2020-01-23 07:00:00 0.4 6 Nordeste 10 Nordeste 0 -- -- 95
2020-01-23 06:00:00 0.7 4 Nordeste 10 Norte 0 -- -- 97
2020-01-23 05:00:00 1.4 5 Sudeste 11 Este 0 -- -- 97
2020-01-23 04:00:00 2.8 4 Norte 13 Este 0 -- -- 93
2020-01-23 03:00:00 2.8 9 Este 13 Este 0 -- -- 94
2020-01-23 02:00:00 3.2 9 Nordeste 17 Norte 0 -- -- 90
2020-01-23 01:00:00 3.8 7 Nordeste 11 Nordeste 0 -- -- 90
2020-01-23 00:00:00 4.1 6 Nordeste 12 Nordeste 0 -- -- 89
2020-01-22 23:00:00 4.8 5 Norte 10 Nordeste 0 -- -- 87
2020-01-22 22:00:00 5.1 8 Nordeste 12 Noroeste 0 -- -- 86
2020-01-22 21:00:00 5 4 Norte 12 Nordeste 0 -- -- 92
2020-01-22 20:00:00 6 10 Nordeste 14 Nordeste 0 -- -- 84
2020-01-22 19:00:00 6.6 5 Norte 9 Noroeste 0 -- -- 82
2020-01-22 18:00:00 8.5 8 Noroeste 17 Norte 0 -- -- 74
2020-01-22 17:00:00 10.4 9 Sudeste 18 Este 0 -- -- 60
2020-01-22 16:00:00 9.3 14 Sudeste 23 Este 0 -- -- 67
2020-01-22 15:00:00 9.8 17 Este 24 Este 0 -- -- 69
2020-01-22 14:00:00 9.3 16 Este 23 Nordeste 0 -- -- 69
2020-01-22 13:00:00 7.8 11 Nordeste 18 Nordeste 0 -- -- 77
2020-01-22 12:00:00 4.6 8 Nordeste 18 Nordeste 0 -- -- 88
2020-01-22 11:00:00 4.6 11 Nordeste 18 Nordeste 0 -- -- 86
2020-01-22 10:00:00 2.2 6 Nordeste 16 Norte 0 -- -- 93
2020-01-22 09:00:00 1.9 7 Nordeste 19 Norte 0 -- -- 92
2020-01-22 08:00:00 2.7 12 Norte 24 Nordeste 0 -- -- 90
2020-01-22 07:00:00 2.9 18 Norte 28 Nordeste 0 -- -- 91
2020-01-22 06:00:00 2.6 16 Norte 23 Norte 0 -- -- 94
2020-01-22 05:00:00 2.6 16 Norte 33 Norte 0 -- -- 95
2020-01-22 04:00:00 3.3 19 Nordeste 28 Norte 0.2 -- -- 93
2020-01-22 03:00:00 2.5 15 Norte 23 Norte 0 -- -- 91
2020-01-22 02:00:00 2.8 13 Norte 27 Norte 0 -- -- 89
2020-01-22 01:00:00 3.4 19 Norte 34 Nordeste 0 -- -- 87
2020-01-22 00:00:00 2.9 15 Nordeste 30 Norte 0 -- -- 88
2020-01-21 23:00:00 2 18 Norte 25 Norte 0 -- -- 90
2020-01-21 22:00:00 2.1 18 Norte 23 Norte 0 -- -- 89
2020-01-21 21:00:00 2.1 15 Norte 29 Norte 0 -- -- 89
2020-01-21 20:00:00 2.5 18 Norte 30 Norte 0 -- -- 87
2020-01-21 19:00:00 2.6 22 Norte 37 Norte 0.2 -- -- 88
2020-01-21 18:00:00 3.3 23 Norte 43 Norte 0 -- -- 89
2020-01-21 17:00:00 4.5 27 Nordeste 54 Norte 0.2 -- -- 79
2020-01-21 16:00:00 5.3 27 Norte 53 Norte 0 -- -- 77
2020-01-21 15:00:00 5.1 27 Norte 42 Norte 0 -- -- 76
2020-01-21 14:00:00 4.1 26 Norte 40 Nordeste 0 -- -- 79
2020-01-21 13:00:00 3.6 30 Norte 46 Norte 0 -- -- 80
2020-01-21 12:00:00 3.5 24 Nordeste 39 Nordeste 0 -- -- 79
2020-01-21 11:00:00 2.4 25 Norte 41 Norte 0.2 -- -- 79
2020-01-21 10:00:00 1.1 26 Norte 40 Norte 0 -- -- 81
2020-01-21 09:00:00 0.1 29 Norte 38 Norte 0 -- -- 86
2020-01-21 08:00:00 -0.5 21 Norte 28 Norte 0 -- -- 84
2020-01-21 07:00:00 -0.5 17 Norte 32 Norte 0 -- -- 83
2020-01-21 06:00:00 -0.1 20 Norte 30 Norte 0 -- -- 82
2020-01-21 05:00:00 0.1 22 Norte 29 Norte 0 -- -- 83
2020-01-21 04:00:00 -0.4 18 Norte 34 Norte 0 -- -- 86
2020-01-21 03:00:00 -0.6 23 Norte 32 Norte 0 -- -- 85
2020-01-21 02:00:00 -0.5 21 Norte 40 Norte 0 -- -- 83
2020-01-21 01:00:00 -0.6 22 Norte 33 Norte 0 -- -- 83
2020-01-21 00:00:00 -0.5 17 Norte 31 Norte 0 -- -- 84
2020-01-20 23:00:00 -1.5 17 Norte 35 Nordeste 0 -- -- 97
2020-01-20 22:00:00 -0.8 27 Nordeste 43 Nordeste 0 -- -- 91
2020-01-20 21:00:00 1.3 22 Norte 33 Norte 0 -- -- 68
2020-01-20 20:00:00 1.4 25 Norte 39 Nordeste 0 -- -- 67
2020-01-20 19:00:00 1.6 21 Norte 36 Norte 0 -- -- 66
2020-01-20 18:00:00 2.2 26 Norte 42 Norte 0 -- -- 62
2020-01-20 17:00:00 3.5 28 Norte 46 Norte 0 -- -- 57
2020-01-20 16:00:00 3.4 32 Norte 47 Norte 0 -- -- 55
2020-01-20 15:00:00 2.8 30 Norte 48 Norte 0 -- -- 56
2020-01-20 14:00:00 3.1 21 Nordeste 41 Nordeste 0 -- -- 53
2020-01-20 13:00:00 2.3 24 Nordeste 48 Norte 0 -- -- 55
2020-01-20 12:00:00 2 25 Nordeste 48 Nordeste 0 -- -- 60
2020-01-20 11:00:00 0.7 28 Norte 42 Norte 0 -- -- 64
2020-01-20 10:00:00 -0.3 26 Norte 41 Norte 0 -- -- 69
2020-01-20 09:00:00 -0.7 27 Norte 44 Norte 0 -- -- 70
2020-01-20 08:00:00 -0.8 24 Norte 44 Norte 0 -- -- 72
2020-01-20 07:00:00 -0.6 27 Norte 41 Norte 0 -- -- 69
2020-01-20 06:00:00 -0.4 26 Norte 50 Norte 0 -- -- 68
2020-01-20 05:00:00 -0.2 28 Norte 44 Norte 0 -- -- 68
2020-01-20 04:00:00 0.1 27 Norte 46 Norte 0 -- -- 66
2020-01-20 03:00:00 0.4 27 Norte 46 Nordeste 0 -- -- 66
2020-01-20 02:00:00 0.5 19 Norte 40 Norte 0 -- -- 66
2020-01-20 01:00:00 1.1 26 Norte 43 Nordeste 0 -- -- 61
2020-01-20 00:00:00 1.4 23 Norte 39 Norte 0 -- -- 61
2020-01-19 23:00:00 1.2 22 Norte 47 Norte 0 -- -- 65
2020-01-19 22:00:00 1.2 25 Norte 49 Norte 0 -- -- 66
2020-01-19 21:00:00 1.5 33 Norte 46 Norte 0 -- -- 65
2020-01-19 20:00:00 2 33 Norte 57 Norte 0 -- -- 60
2020-01-19 19:00:00 2.4 29 Norte 58 Norte 0 -- -- 66
2020-01-19 18:00:00 4.1 35 Norte 56 Norte 0 -- -- 59
2020-01-19 17:00:00 5.3 46 Norte 68 Norte 0 -- -- 56
2020-01-19 16:00:00 6.5 44 Norte 73 Norte 0 -- -- 52
2020-01-19 15:00:00 6.6 48 Norte 68 Norte 0 -- -- 58
2020-01-19 14:00:00 6.7 49 Norte 72 Norte 0 -- -- 56
2020-01-19 13:00:00 6.3 50 Norte 67 Norte 0 -- -- 59
2020-01-19 12:00:00 4.9 33 Norte 60 Norte 0 -- -- 75
2020-01-19 11:00:00 5.3 39 Norte 56 Norte 0 -- -- 78
2020-01-19 10:00:00 4.7 26 Norte 40 Norte 0 -- -- 85
2020-01-19 09:00:00 3.7 19 Noroeste 31 Norte 0 -- -- 91
2020-01-19 08:00:00 2.1 8 Oeste 13 Oeste 0 -- -- 99
2020-01-19 07:00:00 1.7 5 Oeste 8 Oeste 0 -- -- 100
2020-01-19 06:00:00 1.3 7 Oeste 15 Oeste 0 -- -- 100
2020-01-19 05:00:00 1.5 9 Oeste 13 Oeste 0 -- -- 99
2020-01-19 04:00:00 3 7 Noroeste 12 Noroeste 0 -- -- 99
2020-01-19 03:00:00 3.3 5 Noroeste 17 Oeste 0 -- -- 98
2020-01-19 02:00:00 4.1 12 Oeste 20 Oeste 0 -- -- 95
2020-01-19 01:00:00 4.6 11 Sudoeste 15 Sudoeste 0 -- -- 96
2020-01-19 00:00:00 4.7 8 Sudoeste 16 Sudoeste 0 -- -- 95
2020-01-18 23:00:00 5.5 11 Sudoeste 19 Sudoeste 0 -- -- 92
2020-01-18 22:00:00 5.2 11 Sudoeste 28 Oeste 0 -- -- 92
2020-01-18 21:00:00 7.5 26 Oeste 40 Oeste 0 -- -- 81
2020-01-18 20:00:00 8.2 27 Oeste 56 Oeste 0.2 -- -- 81
2020-01-18 19:00:00 8.7 33 Sudoeste 53 Sudoeste 1.6 -- -- 93
2020-01-18 18:00:00 9.6 39 Sudoeste 60 Sur 0 -- -- 86
2020-01-18 17:00:00 11.3 42 Sur 62 Sur 0 -- -- 80
2020-01-18 16:00:00 12.2 41 Sudoeste 73 Sudoeste 0 -- -- 77
2020-01-18 15:00:00 12.4 37 Sudoeste 57 Sudoeste 0 -- -- 79
2020-01-18 14:00:00 11.9 36 Sudoeste 51 Sur 0 -- -- 79
2020-01-18 13:00:00 11 27 Sur 37 Sur 0 -- -- 84
2020-01-18 12:00:00 9.4 15 Sur 24 Sur 0 -- -- 83
2020-01-18 11:00:00 7.3 12 Sudeste 22 Sudeste 0 -- -- 92
2020-01-18 10:00:00 6 15 Sudeste 21 Este 0 -- -- 91
2020-01-18 09:00:00 5.3 13 Este 17 Este 0.2 -- -- 91
2020-01-18 08:00:00 5.5 9 Sudeste 13 Sur 0.2 -- -- 93
2020-01-18 07:00:00 5.5 9 Sudeste 17 Sudeste 0 -- -- 93
2020-01-18 06:00:00 5.7 8 Sur 21 Sur 0 -- -- 90
2020-01-18 05:00:00 5.2 14 Sur 17 Sur 0 -- -- 93
2020-01-18 04:00:00 4.6 3 Sur 10 Sudoeste 0 -- -- 93
2020-01-18 03:00:00 4.2 6 Sudeste 8 Sur 0 -- -- 94
2020-01-18 02:00:00 4 7 Sur 10 Sudeste 0 -- -- 94
2020-01-18 01:00:00 4.3 4 Sudoeste 14 Sur 0 -- -- 93
2020-01-18 00:00:00 3.9 3 Sudeste 10 Este 0 -- -- 95